createdAt,value
2022-09-11T00:00:38.956Z,90.23
2022-09-11T00:01:40.012Z,92.81
2022-09-11T00:02:39.023Z,90.23
2022-09-11T00:03:38.970Z,88.95
2022-09-11T00:04:40.346Z,89.11
2022-09-11T00:05:50.453Z,89.59
2022-09-11T00:06:41.351Z,88.62
2022-09-11T00:07:40.586Z,89.75
2022-09-11T00:08:38.987Z,87.66
2022-09-11T00:09:38.913Z,87.82
2022-09-11T00:10:38.900Z,90.40
2022-09-11T00:11:38.972Z,90.07
2022-09-11T00:12:38.860Z,90.23
2022-09-11T00:13:40.369Z,90.72
2022-09-11T00:14:38.906Z,89.91
2022-09-11T00:15:39.326Z,87.82
2022-09-11T00:16:39.539Z,88.62
2022-09-11T00:17:38.988Z,88.78
2022-09-11T00:18:39.020Z,90.40
2022-09-11T00:19:38.833Z,89.43
2022-09-11T00:20:38.801Z,90.72
2022-09-11T00:21:38.790Z,89.11
2022-09-11T00:22:38.821Z,90.07
2022-09-11T00:23:38.889Z,87.66
2022-09-11T00:24:38.808Z,87.82
2022-09-11T00:25:39.773Z,89.43
2022-09-11T00:26:38.845Z,87.66
2022-09-11T00:27:38.774Z,88.78
2022-09-11T00:28:38.736Z,90.72
2022-09-11T00:29:38.863Z,91.04
2022-09-11T00:30:38.721Z,89.11
2022-09-11T00:31:38.813Z,90.07
2022-09-11T00:32:38.715Z,87.98
2022-09-11T00:33:38.795Z,87.01
2022-09-11T00:34:38.716Z,87.01
2022-09-11T00:35:38.680Z,88.78
2022-09-11T00:36:38.733Z,88.46
2022-09-11T00:37:38.672Z,88.30
2022-09-11T00:38:38.898Z,87.98
2022-09-11T00:39:39.545Z,90.56
2022-09-11T00:40:38.749Z,89.11
2022-09-11T00:41:38.690Z,87.82
2022-09-11T00:42:38.804Z,87.66
2022-09-11T00:43:38.632Z,90.40
2022-09-11T00:44:38.613Z,90.88
2022-09-11T00:45:38.642Z,89.43
2022-09-11T00:46:38.598Z,88.46
2022-09-11T00:47:38.617Z,88.46
2022-09-11T00:48:38.589Z,87.01
2022-09-11T00:49:38.580Z,87.82
2022-09-11T00:50:38.628Z,84.27
2022-09-11T00:51:38.627Z,85.08
2022-09-11T00:52:38.555Z,86.85
2022-09-11T00:53:38.620Z,87.01
2022-09-11T00:54:38.539Z,88.30
2022-09-11T00:55:38.591Z,86.69
2022-09-11T00:56:38.526Z,87.17
2022-09-11T00:57:38.513Z,84.59
2022-09-11T00:58:38.515Z,77.02
2022-09-11T00:59:38.531Z,81.21
2022-09-11T01:00:38.571Z,81.53
2022-09-11T01:01:38.529Z,78.79
2022-09-11T01:02:38.579Z,85.72
2022-09-11T01:03:38.532Z,82.50
2022-09-11T01:04:38.483Z,80.89
2022-09-11T01:05:38.481Z,79.60
2022-09-11T01:06:38.446Z,73.64
2022-09-11T01:07:38.441Z,68.80
2022-09-11T01:08:38.655Z,70.25
2022-09-11T01:09:39.425Z,77.34
2022-09-11T01:10:38.448Z,70.42
2022-09-11T01:11:38.408Z,82.66
2022-09-11T01:12:38.399Z,77.99
2022-09-11T01:13:38.527Z,76.22
2022-09-11T01:14:38.408Z,73.48
2022-09-11T01:15:38.432Z,74.93
2022-09-11T01:16:38.427Z,72.35
2022-09-11T01:17:38.357Z,75.89
2022-09-11T01:18:38.349Z,77.02
2022-09-11T01:19:38.365Z,82.02
2022-09-11T01:20:38.337Z,80.73
2022-09-11T01:21:38.391Z,84.27
2022-09-11T01:22:38.320Z,83.63
2022-09-11T01:23:38.337Z,85.56
2022-09-11T01:24:38.520Z,82.50
2022-09-11T01:25:38.319Z,86.04
2022-09-11T01:26:38.287Z,83.63
2022-09-11T01:27:38.277Z,86.53
2022-09-11T01:28:38.271Z,87.98
2022-09-11T01:29:38.285Z,84.27
2022-09-11T01:30:38.256Z,79.44
2022-09-11T01:31:38.306Z,78.63
2022-09-11T01:32:38.338Z,73.48
2022-09-11T01:33:38.250Z,72.19
2022-09-11T01:34:38.401Z,70.42
2022-09-11T01:35:38.344Z,69.13
2022-09-11T01:36:38.205Z,74.44
2022-09-11T01:37:38.199Z,73.32
2022-09-11T01:38:38.193Z,68.80
2022-09-11T01:39:38.318Z,74.28
2022-09-11T01:40:38.176Z,70.74
2022-09-11T01:41:38.164Z,70.74
2022-09-11T01:42:38.174Z,75.57
2022-09-11T01:43:38.199Z,70.25
2022-09-11T01:44:38.158Z,72.51
2022-09-11T01:45:39.160Z,70.74
2022-09-11T01:46:38.125Z,80.24
2022-09-11T01:47:38.115Z,68.16
2022-09-11T01:48:38.114Z,67.35
2022-09-11T01:49:38.144Z,64.94
2022-09-11T01:50:38.111Z,65.74
2022-09-11T01:51:38.125Z,65.90
2022-09-11T01:52:38.083Z,66.23
2022-09-11T01:53:38.070Z,65.58
2022-09-11T01:54:38.088Z,63.00
2022-09-11T01:55:38.052Z,78.96
2022-09-11T01:56:39.039Z,77.02
2022-09-11T01:57:39.042Z,75.73
2022-09-11T01:58:38.039Z,74.77
2022-09-11T01:59:38.031Z,80.41
2022-09-11T02:00:38.070Z,77.99
2022-09-11T02:01:38.037Z,78.15
2022-09-11T02:02:38.007Z,76.54
2022-09-11T02:03:38.067Z,61.87
2022-09-11T02:04:38.015Z,68.48
2022-09-11T02:05:37.971Z,68.16
2022-09-11T02:06:38.974Z,66.71
2022-09-11T02:07:37.972Z,76.05
2022-09-11T02:08:37.964Z,80.73
2022-09-11T02:09:38.015Z,68.96
2022-09-11T02:10:37.946Z,78.47
2022-09-11T02:11:37.942Z,75.57
2022-09-11T02:12:37.930Z,83.63
2022-09-11T02:13:37.926Z,75.57
2022-09-11T02:14:37.943Z,80.57
2022-09-11T02:15:37.909Z,82.50
2022-09-11T02:16:38.205Z,82.98
2022-09-11T02:17:37.911Z,77.83
2022-09-11T02:18:37.889Z,75.73
2022-09-11T02:19:37.899Z,82.98
2022-09-11T02:20:37.910Z,78.63
2022-09-11T02:21:37.863Z,77.18
2022-09-11T02:22:37.862Z,70.25
2022-09-11T02:23:37.901Z,79.28
2022-09-11T02:24:37.870Z,76.05
2022-09-11T02:25:37.883Z,74.12
2022-09-11T02:26:37.823Z,77.67
2022-09-11T02:27:37.841Z,73.48
2022-09-11T02:28:37.806Z,78.15
2022-09-11T02:29:37.818Z,83.79
2022-09-11T02:30:37.811Z,84.76
2022-09-11T02:31:37.801Z,82.66
2022-09-11T02:32:37.773Z,80.24
2022-09-11T02:33:37.908Z,79.60
2022-09-11T02:34:37.792Z,70.74
2022-09-11T02:35:37.757Z,80.08
2022-09-11T02:36:37.745Z,78.63
2022-09-11T02:37:37.758Z,71.70
2022-09-11T02:38:37.729Z,64.94
2022-09-11T02:39:37.812Z,67.51
2022-09-11T02:40:37.749Z,66.55
2022-09-11T02:41:37.705Z,63.33
2022-09-11T02:42:37.703Z,64.78
2022-09-11T02:43:37.691Z,66.55
2022-09-11T02:44:37.719Z,65.10
2022-09-11T02:45:37.766Z,62.36
2022-09-11T02:46:37.673Z,66.71
2022-09-11T02:47:37.664Z,64.29
2022-09-11T02:48:37.679Z,66.87
2022-09-11T02:49:37.651Z,66.06
2022-09-11T02:50:38.940Z,62.20
2022-09-11T02:51:37.633Z,64.94
2022-09-11T02:52:37.635Z,65.74
2022-09-11T02:53:37.665Z,62.36
2022-09-11T02:54:37.612Z,75.89
2022-09-11T02:55:37.625Z,64.94
2022-09-11T02:56:37.595Z,69.77
2022-09-11T02:57:37.584Z,78.15
2022-09-11T02:58:37.580Z,67.35
2022-09-11T03:00:09.603Z,84.76
2022-09-11T03:00:37.617Z,65.74
2022-09-11T03:01:37.554Z,64.94
2022-09-11T03:02:37.550Z,63.00
2022-09-11T03:03:37.571Z,66.71
2022-09-11T03:04:37.533Z,64.94
2022-09-11T03:05:37.553Z,63.49
2022-09-11T03:06:37.519Z,63.49
2022-09-11T03:07:37.541Z,63.16
2022-09-11T03:08:37.505Z,69.13
2022-09-11T03:09:37.508Z,71.87
2022-09-11T03:10:37.514Z,62.68
2022-09-11T03:11:37.486Z,63.49
2022-09-11T03:12:37.476Z,64.61
2022-09-11T03:13:37.464Z,68.32
2022-09-11T03:14:37.451Z,65.42
2022-09-11T03:15:37.473Z,72.35
2022-09-11T03:16:37.456Z,66.23
2022-09-11T03:17:37.430Z,68.80
2022-09-11T03:18:37.423Z,82.98
2022-09-11T03:19:37.431Z,68.00
2022-09-11T03:20:37.431Z,83.14
2022-09-11T03:21:37.406Z,85.40
2022-09-11T03:22:37.400Z,60.26
2022-09-11T03:23:37.389Z,64.29
2022-09-11T03:24:37.377Z,68.64
2022-09-11T03:25:37.398Z,62.04
2022-09-11T03:26:37.358Z,61.87
2022-09-11T03:27:37.351Z,62.84
2022-09-11T03:28:37.338Z,59.46
2022-09-11T03:29:37.343Z,64.78
2022-09-11T03:30:37.423Z,63.49
2022-09-11T03:31:39.196Z,57.85
2022-09-11T03:32:38.316Z,63.97
2022-09-11T03:33:37.308Z,63.49
2022-09-11T03:34:37.303Z,65.90
2022-09-11T03:35:37.319Z,65.90
2022-09-11T03:36:37.283Z,62.04
2022-09-11T03:37:37.271Z,58.65
2022-09-11T03:38:37.267Z,66.39
2022-09-11T03:39:37.284Z,60.91
2022-09-11T03:40:37.270Z,63.33
2022-09-11T03:41:37.240Z,70.09
2022-09-11T03:42:37.232Z,61.71
2022-09-11T03:43:37.225Z,66.71
2022-09-11T03:44:37.302Z,63.33
2022-09-11T03:45:37.304Z,69.29
2022-09-11T03:46:37.198Z,65.74
2022-09-11T03:47:37.192Z,66.23
2022-09-11T03:48:37.188Z,70.25
2022-09-11T03:49:37.176Z,60.10
2022-09-11T03:50:37.201Z,74.77
2022-09-11T03:51:37.162Z,65.58
2022-09-11T03:52:37.156Z,68.80
2022-09-11T03:53:37.147Z,71.06
2022-09-11T03:54:37.144Z,61.87
2022-09-11T03:55:37.158Z,64.13
2022-09-11T03:56:37.129Z,62.84
2022-09-11T03:57:37.141Z,60.59
2022-09-11T03:58:37.112Z,63.81
2022-09-11T03:59:38.167Z,59.94
2022-09-11T04:00:37.122Z,58.65
2022-09-11T04:01:37.123Z,60.10
2022-09-11T04:02:37.090Z,68.48
2022-09-11T04:03:37.100Z,67.19
2022-09-11T04:04:37.068Z,59.94
2022-09-11T04:05:37.165Z,55.75
2022-09-11T04:06:37.048Z,55.27
2022-09-11T04:07:37.042Z,76.86
2022-09-11T04:08:37.035Z,63.16
2022-09-11T04:09:37.035Z,72.51
2022-09-11T04:10:37.042Z,59.78
2022-09-11T04:11:37.592Z,64.94
2022-09-11T04:12:38.001Z,55.91
2022-09-11T04:13:36.997Z,62.36
2022-09-11T04:14:36.981Z,62.52
2022-09-11T04:15:37.002Z,71.38
2022-09-11T04:16:36.997Z,60.26
2022-09-11T04:17:36.957Z,51.24
2022-09-11T04:18:36.957Z,53.01
2022-09-11T04:19:36.960Z,58.81
2022-09-11T04:20:36.987Z,67.19
2022-09-11T04:21:36.927Z,62.52
2022-09-11T04:22:36.925Z,52.53
2022-09-11T04:23:36.911Z,63.65
2022-09-11T04:24:36.905Z,59.14
2022-09-11T04:25:36.894Z,60.10
2022-09-11T04:26:36.920Z,70.74
2022-09-11T04:27:36.882Z,73.32
2022-09-11T04:28:36.871Z,73.96
2022-09-11T04:29:36.862Z,68.48
2022-09-11T04:30:36.856Z,75.89
2022-09-11T04:31:36.925Z,78.15
2022-09-11T04:32:36.837Z,58.81
2022-09-11T04:33:36.830Z,60.59
2022-09-11T04:34:36.824Z,61.39
2022-09-11T04:35:36.813Z,62.68
2022-09-11T04:36:36.829Z,56.72
2022-09-11T04:37:36.798Z,70.90
2022-09-11T04:38:36.796Z,62.68
2022-09-11T04:39:36.809Z,59.94
2022-09-11T04:40:36.775Z,53.17
2022-09-11T04:41:36.793Z,63.81
2022-09-11T04:42:36.759Z,52.05
2022-09-11T04:43:36.752Z,64.29
2022-09-11T04:44:36.743Z,64.13
2022-09-11T04:45:36.794Z,62.36
2022-09-11T04:46:36.752Z,62.36
2022-09-11T04:47:36.719Z,55.75
2022-09-11T04:48:36.718Z,55.59
2022-09-11T04:49:36.702Z,63.16
2022-09-11T04:50:36.698Z,58.49
2022-09-11T04:51:36.730Z,51.56
2022-09-11T04:52:36.688Z,61.39
2022-09-11T04:53:36.672Z,62.52
2022-09-11T04:54:36.669Z,69.29
2022-09-11T04:55:36.685Z,48.82
2022-09-11T04:56:36.654Z,62.36
2022-09-11T04:57:36.643Z,53.33
2022-09-11T04:58:36.637Z,61.87
2022-09-11T04:59:36.626Z,61.87
2022-09-11T05:00:36.643Z,65.10
2022-09-11T05:01:36.614Z,53.33
2022-09-11T05:02:36.605Z,64.29
2022-09-11T05:03:36.600Z,58.81
2022-09-11T05:04:36.590Z,63.33
2022-09-11T05:05:36.740Z,63.16
2022-09-11T05:06:36.573Z,62.20
2022-09-11T05:07:36.579Z,63.49
2022-09-11T05:08:36.577Z,60.42
2022-09-11T05:09:36.553Z,59.94
2022-09-11T05:10:36.576Z,61.87
2022-09-11T05:11:36.541Z,45.76
2022-09-11T05:12:36.530Z,43.02
2022-09-11T05:13:36.811Z,61.71
2022-09-11T05:14:36.514Z,62.20
2022-09-11T05:15:36.533Z,59.46
2022-09-11T05:16:36.539Z,61.23
2022-09-11T05:17:36.509Z,61.23
2022-09-11T05:18:36.480Z,44.63
2022-09-11T05:19:36.471Z,61.55
2022-09-11T05:20:36.464Z,57.20
2022-09-11T05:21:36.485Z,60.10
2022-09-11T05:22:36.451Z,61.55
2022-09-11T05:23:36.436Z,64.13
2022-09-11T05:24:36.433Z,68.16
2022-09-11T05:25:36.423Z,50.43
2022-09-11T05:26:36.440Z,55.59
2022-09-11T05:27:36.407Z,49.63
2022-09-11T05:28:36.538Z,41.89
2022-09-11T05:29:36.442Z,59.14
2022-09-11T05:30:36.400Z,65.90
2022-09-11T05:31:36.426Z,61.71
2022-09-11T05:32:36.498Z,64.45
2022-09-11T05:33:36.469Z,57.52
2022-09-11T05:34:36.360Z,62.84
2022-09-11T05:35:36.401Z,52.85
2022-09-11T05:36:36.360Z,59.14
2022-09-11T05:37:36.329Z,61.87
2022-09-11T05:38:36.321Z,65.74
2022-09-11T05:39:36.374Z,58.97
2022-09-11T05:40:36.305Z,62.52
2022-09-11T05:41:36.330Z,57.69
2022-09-11T05:42:36.302Z,49.79
2022-09-11T05:43:36.293Z,61.39
2022-09-11T05:44:36.282Z,59.30
2022-09-11T05:45:36.332Z,62.84
2022-09-11T05:46:36.282Z,52.37
2022-09-11T05:47:36.252Z,59.62
2022-09-11T05:48:36.245Z,61.39
2022-09-11T05:49:36.237Z,58.97
2022-09-11T05:50:36.228Z,61.23
2022-09-11T05:51:36.241Z,62.20
2022-09-11T05:52:36.209Z,59.94
2022-09-11T05:53:36.203Z,61.71
2022-09-11T05:54:36.199Z,62.04
2022-09-11T05:55:36.186Z,63.65
2022-09-11T05:56:36.201Z,62.20
2022-09-11T05:57:36.172Z,55.27
2022-09-11T05:58:36.163Z,60.91
2022-09-11T05:59:36.154Z,63.33
2022-09-11T06:00:36.153Z,67.19
2022-09-11T06:01:36.255Z,62.68
2022-09-11T06:02:36.130Z,46.89
2022-09-11T06:03:36.128Z,60.91
2022-09-11T06:04:36.122Z,62.04
2022-09-11T06:05:36.115Z,64.29
2022-09-11T06:06:36.130Z,64.78
2022-09-11T06:07:36.116Z,62.04
2022-09-11T06:08:36.098Z,62.36
2022-09-11T06:09:36.084Z,62.36
2022-09-11T06:10:36.075Z,59.62
2022-09-11T06:11:36.091Z,62.36
2022-09-11T06:12:36.052Z,62.04
2022-09-11T06:13:36.047Z,65.10
2022-09-11T06:14:36.040Z,54.95
2022-09-11T06:15:46.752Z,60.91
2022-09-11T06:16:38.065Z,64.78
2022-09-11T06:17:36.015Z,62.84
2022-09-11T06:18:36.012Z,70.58
2022-09-11T06:19:35.998Z,64.45
2022-09-11T06:20:35.992Z,62.68
2022-09-11T06:21:36.009Z,57.20
2022-09-11T06:22:35.986Z,63.49
2022-09-11T06:23:35.968Z,64.94
2022-09-11T06:24:35.959Z,51.24
2022-09-11T06:25:35.958Z,59.30
2022-09-11T06:26:35.971Z,63.49
2022-09-11T06:27:35.942Z,58.01
2022-09-11T06:28:35.946Z,63.33
2022-09-11T06:29:35.919Z,66.55
2022-09-11T06:30:35.956Z,66.55
2022-09-11T06:31:35.931Z,63.16
2022-09-11T06:32:35.902Z,51.24
2022-09-11T06:33:35.892Z,62.84
2022-09-11T06:34:35.886Z,78.15
2022-09-11T06:35:35.890Z,61.39
2022-09-11T06:36:35.896Z,64.45
2022-09-11T06:37:35.864Z,62.84
2022-09-11T06:38:35.852Z,64.94
2022-09-11T06:39:35.959Z,73.32
2022-09-11T06:40:35.838Z,61.87
2022-09-11T06:41:35.854Z,64.13
2022-09-11T06:42:35.821Z,62.36
2022-09-11T06:43:35.815Z,60.91
2022-09-11T06:44:35.811Z,66.23
2022-09-11T06:45:35.811Z,71.54
2022-09-11T06:46:35.820Z,63.00
2022-09-11T06:47:35.780Z,63.97
2022-09-11T06:48:35.773Z,62.52
2022-09-11T06:49:35.773Z,62.52
2022-09-11T06:50:36.962Z,65.58
2022-09-11T06:51:36.773Z,68.64
2022-09-11T06:52:35.758Z,62.84
2022-09-11T06:53:35.732Z,68.96
2022-09-11T06:54:35.722Z,72.35
2022-09-11T06:55:35.717Z,64.45
2022-09-11T06:56:35.734Z,69.77
2022-09-11T06:57:39.915Z,72.67
2022-09-11T06:58:37.692Z,65.90
2022-09-11T06:59:35.684Z,65.26
2022-09-11T07:00:35.674Z,71.38
2022-09-11T07:01:35.810Z,64.61
2022-09-11T07:02:35.664Z,72.35
2022-09-11T07:03:35.648Z,70.74
2022-09-11T07:04:35.641Z,74.12
2022-09-11T07:05:35.652Z,77.83
2022-09-11T07:06:35.657Z,69.77
2022-09-11T07:07:35.633Z,78.96
2022-09-11T07:08:35.613Z,71.22
2022-09-11T07:09:35.605Z,60.59
2022-09-11T07:10:35.597Z,72.99
2022-09-11T07:11:35.612Z,81.69
2022-09-11T07:12:35.589Z,73.96
2022-09-11T07:13:37.561Z,81.69
2022-09-11T07:14:36.573Z,75.09
2022-09-11T07:15:35.560Z,81.53
2022-09-11T07:16:35.658Z,75.57
2022-09-11T07:17:35.549Z,74.28
2022-09-11T07:18:35.540Z,80.73
2022-09-11T07:19:35.536Z,70.90
2022-09-11T07:20:35.524Z,72.67
2022-09-11T07:21:35.547Z,70.25
2022-09-11T07:22:35.510Z,73.64
2022-09-11T07:23:35.501Z,66.71
2022-09-11T07:24:35.492Z,63.49
2022-09-11T07:25:35.491Z,65.26
2022-09-11T07:26:35.516Z,66.23
2022-09-11T07:27:35.476Z,67.19
2022-09-11T07:28:35.462Z,63.16
2022-09-11T07:29:35.454Z,65.26
2022-09-11T07:30:35.500Z,63.33
2022-09-11T07:31:35.515Z,67.19
2022-09-11T07:32:35.487Z,66.06
2022-09-11T07:33:35.445Z,64.94
2022-09-11T07:34:35.416Z,65.90
2022-09-11T07:35:35.406Z,69.77
2022-09-11T07:36:35.433Z,68.64
2022-09-11T07:37:35.399Z,67.03
2022-09-11T07:38:35.384Z,64.45
2022-09-11T07:39:35.405Z,66.23
2022-09-11T07:40:35.368Z,65.26
2022-09-11T07:41:35.387Z,66.06
2022-09-11T07:42:35.358Z,66.39
2022-09-11T07:43:35.345Z,64.78
2022-09-11T07:44:35.341Z,66.71
2022-09-11T07:45:35.400Z,65.42
2022-09-11T07:46:35.330Z,72.03
2022-09-11T07:47:35.337Z,71.22
2022-09-11T07:48:35.307Z,69.45
2022-09-11T07:49:35.305Z,66.23
2022-09-11T07:50:35.293Z,65.74
2022-09-11T07:51:35.346Z,69.77
2022-09-11T07:52:35.301Z,70.25
2022-09-11T07:53:35.336Z,69.13
2022-09-11T07:54:35.264Z,68.96
2022-09-11T07:55:35.263Z,71.06
2022-09-11T07:56:35.252Z,69.45
2022-09-11T07:57:35.264Z,69.77
2022-09-11T07:58:35.235Z,71.87
2022-09-11T07:59:35.224Z,69.77
2022-09-11T08:00:37.097Z,71.54
2022-09-11T08:01:36.256Z,69.61
2022-09-11T08:02:35.281Z,68.80
2022-09-11T08:03:35.195Z,69.45
2022-09-11T08:04:35.187Z,67.68
2022-09-11T08:05:35.199Z,71.22
2022-09-11T08:06:35.177Z,74.60
2022-09-11T08:07:35.188Z,68.48
2022-09-11T08:08:35.154Z,72.03
2022-09-11T08:09:35.147Z,71.38
2022-09-11T08:10:35.137Z,69.61
2022-09-11T08:11:35.149Z,71.54
2022-09-11T08:12:35.153Z,72.19
2022-09-11T08:13:35.117Z,67.19
2022-09-11T08:14:35.133Z,83.31
2022-09-11T08:15:35.100Z,75.89
2022-09-11T08:16:35.150Z,72.99
2022-09-11T08:17:35.108Z,71.06
2022-09-11T08:18:35.078Z,67.19
2022-09-11T08:19:35.069Z,67.03
2022-09-11T08:20:35.053Z,71.38
2022-09-11T08:21:36.123Z,65.74
2022-09-11T08:22:35.074Z,69.61
2022-09-11T08:23:35.035Z,70.25
2022-09-11T08:24:35.032Z,73.80
2022-09-11T08:25:35.023Z,74.44
2022-09-11T08:26:35.011Z,66.87
2022-09-11T08:27:35.028Z,72.51
2022-09-11T08:28:34.998Z,74.77
2022-09-11T08:29:35.027Z,65.90
2022-09-11T08:30:35.003Z,71.70
2022-09-11T08:31:35.109Z,80.57
2022-09-11T08:32:35.089Z,86.21
2022-09-11T08:33:34.964Z,86.37
2022-09-11T08:34:34.960Z,72.35
2022-09-11T08:35:34.955Z,84.92
2022-09-11T08:36:34.941Z,66.87
2022-09-11T08:37:34.978Z,74.12
2022-09-11T08:38:34.934Z,66.39
2022-09-11T08:39:35.074Z,66.55
2022-09-11T08:40:34.920Z,65.58
2022-09-11T08:41:34.914Z,63.49
2022-09-11T08:42:34.923Z,68.96
2022-09-11T08:43:34.893Z,66.39
2022-09-11T08:44:38.535Z,67.19
2022-09-11T08:45:35.935Z,66.06
2022-09-11T08:46:34.881Z,69.93
2022-09-11T08:47:34.917Z,68.32
2022-09-11T08:48:34.893Z,69.29
2022-09-11T08:49:34.873Z,66.06
2022-09-11T08:50:34.835Z,65.58
2022-09-11T08:51:34.826Z,68.48
2022-09-11T08:52:34.850Z,72.99
2022-09-11T08:53:34.847Z,71.87
2022-09-11T08:54:34.802Z,68.32
2022-09-11T08:55:34.798Z,70.74
2022-09-11T08:56:34.790Z,67.68
2022-09-11T08:57:34.823Z,70.09
2022-09-11T08:58:34.777Z,72.51
2022-09-11T08:59:34.764Z,76.86
2022-09-11T09:00:34.805Z,76.38
2022-09-11T09:01:34.831Z,77.67
2022-09-11T09:02:34.772Z,75.41
2022-09-11T09:03:34.738Z,74.28
2022-09-11T09:04:34.729Z,77.34
2022-09-11T09:05:34.751Z,69.45
2022-09-11T09:06:34.714Z,71.54
2022-09-11T09:07:34.739Z,69.77
2022-09-11T09:08:34.708Z,71.38
2022-09-11T09:09:35.323Z,69.77
2022-09-11T09:10:35.690Z,71.06
2022-09-11T09:11:34.700Z,71.54
2022-09-11T09:12:34.700Z,68.32
2022-09-11T09:13:34.656Z,70.90
2022-09-11T09:14:34.680Z,68.80
2022-09-11T09:15:34.640Z,82.82
2022-09-11T09:16:34.677Z,69.93
2022-09-11T09:17:34.759Z,70.90
2022-09-11T09:18:34.615Z,72.35
2022-09-11T09:19:34.616Z,72.35
2022-09-11T09:20:34.644Z,70.42
2022-09-11T09:21:34.774Z,70.25
2022-09-11T09:22:34.616Z,67.03
2022-09-11T09:23:34.583Z,71.70
2022-09-11T09:24:34.616Z,72.99
2022-09-11T09:25:34.644Z,69.61
2022-09-11T09:26:38.374Z,71.70
2022-09-11T09:27:35.572Z,73.80
2022-09-11T09:28:34.548Z,71.87
2022-09-11T09:29:34.537Z,72.67
2022-09-11T09:30:34.531Z,74.12
2022-09-11T09:31:34.527Z,73.15
2022-09-11T09:32:34.541Z,71.54
2022-09-11T09:33:34.521Z,76.38
2022-09-11T09:34:34.501Z,75.57
2022-09-11T09:35:34.489Z,65.10
2022-09-11T09:36:34.485Z,71.38
2022-09-11T09:37:34.476Z,66.39
2022-09-11T09:38:34.513Z,73.64
2022-09-11T09:39:34.459Z,68.00
2022-09-11T09:40:34.451Z,68.96
2022-09-11T09:41:34.451Z,68.96
2022-09-11T09:42:34.463Z,67.03
2022-09-11T09:43:34.494Z,69.29
2022-09-11T09:44:34.454Z,71.54
2022-09-11T09:45:34.470Z,64.94
2022-09-11T09:46:34.407Z,65.58
2022-09-11T09:47:34.394Z,68.96
2022-09-11T09:48:34.423Z,74.12
2022-09-11T09:49:34.382Z,70.09
2022-09-11T09:50:34.375Z,70.58
2022-09-11T09:51:34.365Z,66.23
2022-09-11T09:52:34.387Z,64.78
2022-09-11T09:53:34.350Z,65.26
2022-09-11T09:54:34.345Z,65.10
2022-09-11T09:55:34.340Z,67.84
2022-09-11T09:56:34.355Z,64.29
2022-09-11T09:57:34.325Z,66.39
2022-09-11T09:58:34.485Z,65.74
2022-09-11T09:59:34.309Z,72.99
2022-09-11T10:00:34.296Z,76.22
2022-09-11T10:01:34.314Z,68.80
2022-09-11T10:02:34.317Z,68.96
2022-09-11T10:03:34.306Z,65.90
2022-09-11T10:04:34.271Z,67.51
2022-09-11T10:05:34.262Z,64.94
2022-09-11T10:06:34.260Z,68.64
2022-09-11T10:07:34.260Z,70.25
2022-09-11T10:08:34.301Z,71.06
2022-09-11T10:09:34.237Z,64.13
2022-09-11T10:10:34.212Z,65.90
2022-09-11T10:11:35.210Z,66.71
2022-09-11T10:12:34.205Z,74.93
2022-09-11T10:13:34.232Z,75.73
2022-09-11T10:14:51.166Z,76.05
2022-09-11T10:15:36.220Z,75.09
2022-09-11T10:16:34.176Z,73.15
2022-09-11T10:17:34.171Z,66.39
2022-09-11T10:18:34.301Z,65.74
2022-09-11T10:19:34.192Z,68.00
2022-09-11T10:20:34.235Z,66.55
2022-09-11T10:21:34.152Z,70.25
2022-09-11T10:22:34.130Z,67.84
2022-09-11T10:23:34.145Z,67.03
2022-09-11T10:24:34.112Z,70.25
2022-09-11T10:25:34.118Z,67.51
2022-09-11T10:26:34.112Z,73.64
2022-09-11T10:27:34.170Z,74.93
2022-09-11T10:28:34.231Z,75.09
2022-09-11T10:29:34.130Z,76.70
2022-09-11T10:30:34.092Z,65.90
2022-09-11T10:31:34.150Z,72.83
2022-09-11T10:32:34.055Z,73.80
2022-09-11T10:33:34.181Z,74.12
2022-09-11T10:34:34.037Z,75.89
2022-09-11T10:35:34.033Z,76.05
2022-09-11T10:36:34.075Z,74.60
2022-09-11T10:37:34.013Z,73.80
2022-09-11T10:38:36.949Z,73.80
2022-09-11T10:39:35.176Z,70.90
2022-09-11T10:40:34.075Z,74.44
2022-09-11T10:41:34.053Z,75.73
2022-09-11T10:42:33.986Z,77.50
2022-09-11T10:43:34.004Z,78.31
2022-09-11T10:44:34.345Z,69.77
2022-09-11T10:45:34.021Z,79.44
2022-09-11T10:46:41.134Z,79.92
2022-09-11T10:47:33.940Z,75.57
2022-09-11T10:48:33.969Z,77.67
2022-09-11T10:49:33.977Z,74.44
2022-09-11T10:50:33.990Z,71.70
2022-09-11T10:51:33.928Z,79.92
2022-09-11T10:52:33.917Z,75.73
2022-09-11T10:53:33.907Z,73.64
2022-09-11T10:54:33.929Z,75.09
2022-09-11T10:55:33.882Z,73.15
2022-09-11T10:56:33.916Z,72.35
2022-09-11T10:57:33.909Z,72.03
2022-09-11T10:58:33.972Z,72.35
2022-09-11T10:59:33.881Z,77.34
2022-09-11T11:00:33.836Z,75.73
2022-09-11T11:01:33.875Z,76.22
2022-09-11T11:02:33.831Z,67.19
2022-09-11T11:03:33.913Z,68.00
2022-09-11T11:04:33.827Z,74.44
2022-09-11T11:05:33.839Z,74.28
2022-09-11T11:06:33.813Z,77.83
2022-09-11T11:07:33.779Z,73.48
2022-09-11T11:08:33.916Z,71.54
2022-09-11T11:09:33.839Z,71.22
2022-09-11T11:10:33.777Z,72.35
2022-09-11T11:11:33.800Z,76.05
2022-09-11T11:12:33.746Z,77.02
2022-09-11T11:13:33.764Z,77.34
2022-09-11T11:14:34.467Z,79.60
2022-09-11T11:15:33.770Z,75.73
2022-09-11T11:16:33.726Z,80.24
2022-09-11T11:17:33.780Z,74.60
2022-09-11T11:18:34.852Z,72.83
2022-09-11T11:19:33.790Z,73.80
2022-09-11T11:20:33.687Z,75.73
2022-09-11T11:21:33.681Z,82.66
2022-09-11T11:22:33.802Z,74.60
2022-09-11T11:23:33.779Z,76.54
2022-09-11T11:24:33.690Z,79.12
2022-09-11T11:25:33.657Z,74.12
2022-09-11T11:26:33.632Z,70.58
2022-09-11T11:27:34.629Z,72.99
2022-09-11T11:28:33.681Z,70.25
2022-09-11T11:29:34.559Z,69.77
2022-09-11T11:30:33.706Z,68.32
2022-09-11T11:31:33.754Z,67.68
2022-09-11T11:32:33.621Z,70.25
2022-09-11T11:33:33.585Z,68.16
2022-09-11T11:34:33.603Z,69.13
2022-09-11T11:35:33.573Z,74.60
2022-09-11T11:36:33.567Z,76.38
2022-09-11T11:37:33.657Z,81.37
2022-09-11T11:38:33.663Z,75.57
2022-09-11T11:39:33.597Z,76.86
2022-09-11T11:40:33.571Z,72.35
2022-09-11T11:41:34.641Z,74.44
2022-09-11T11:42:33.630Z,78.79
2022-09-11T11:43:33.506Z,79.76
2022-09-11T11:44:33.524Z,84.43
2022-09-11T11:45:33.603Z,79.92
2022-09-11T11:46:33.488Z,77.50
2022-09-11T11:47:33.569Z,77.99
2022-09-11T11:48:33.498Z,77.02
2022-09-11T11:49:33.491Z,77.34
2022-09-11T11:50:33.530Z,75.41
2022-09-11T11:51:33.444Z,77.67
2022-09-11T11:52:33.438Z,75.73
2022-09-11T11:53:33.459Z,73.96
2022-09-11T11:54:33.584Z,74.77
2022-09-11T11:55:33.498Z,76.70
2022-09-11T11:56:33.481Z,80.89
2022-09-11T11:57:33.406Z,77.99
2022-09-11T11:58:33.449Z,77.67
2022-09-11T11:59:33.647Z,78.96
2022-09-11T12:00:33.373Z,83.63
2022-09-11T12:01:33.383Z,79.44
2022-09-11T12:02:33.357Z,82.34
2022-09-11T12:03:33.506Z,79.44
2022-09-11T12:04:33.407Z,76.86
2022-09-11T12:05:33.379Z,80.24
2022-09-11T12:06:33.335Z,77.50
2022-09-11T12:07:33.322Z,75.89
2022-09-11T12:08:33.418Z,75.73
2022-09-11T12:09:34.077Z,77.02
2022-09-11T12:10:34.302Z,76.22
2022-09-11T12:11:33.281Z,87.98
2022-09-11T12:12:33.291Z,76.22
2022-09-11T12:13:33.299Z,77.18
2022-09-11T12:14:33.295Z,78.79
2022-09-11T12:15:33.263Z,78.15
2022-09-11T12:16:33.371Z,79.12
2022-09-11T12:17:33.251Z,76.70
2022-09-11T12:18:33.235Z,76.05
2022-09-11T12:19:33.381Z,82.34
2022-09-11T12:20:34.292Z,77.67
2022-09-11T12:21:33.236Z,74.93
2022-09-11T12:22:33.206Z,73.80
2022-09-11T12:23:33.215Z,75.89
2022-09-11T12:24:33.228Z,79.60
2022-09-11T12:25:33.220Z,78.15
2022-09-11T12:26:33.351Z,78.15
2022-09-11T12:27:33.161Z,80.57
2022-09-11T12:28:33.223Z,76.54
2022-09-11T12:29:33.268Z,80.24
2022-09-11T12:30:33.169Z,85.24
2022-09-11T12:31:33.196Z,83.95
2022-09-11T12:32:33.145Z,83.14
2022-09-11T12:33:33.106Z,89.43
2022-09-11T12:34:33.181Z,84.43
2022-09-11T12:35:33.148Z,90.23
2022-09-11T12:36:33.159Z,88.14
2022-09-11T12:37:33.093Z,85.72
2022-09-11T12:38:33.170Z,83.47
2022-09-11T12:39:33.289Z,84.76
2022-09-11T12:40:33.083Z,87.50
2022-09-11T12:41:33.109Z,92.49
2022-09-11T12:42:33.165Z,86.04
2022-09-11T12:43:33.107Z,86.04
2022-09-11T12:44:33.052Z,83.79
2022-09-11T12:45:33.114Z,80.89
2022-09-11T12:46:33.017Z,82.50
2022-09-11T12:47:33.002Z,73.64
2022-09-11T12:48:32.998Z,76.86
2022-09-11T12:49:33.012Z,81.05
2022-09-11T12:50:33.140Z,76.54
2022-09-11T12:51:32.981Z,80.24
2022-09-11T12:52:33.003Z,76.05